createdAt,value
2019-05-30T00:01:42.610Z,4.43
2019-05-30T00:06:45.060Z,4.30
2019-05-30T00:11:47.519Z,4.43
2019-05-30T00:16:50.035Z,4.50
2019-05-30T00:21:52.515Z,4.83
2019-05-30T00:26:56.201Z,5.13
2019-05-30T00:31:57.518Z,4.60
2019-05-30T00:36:59.935Z,4.40
2019-05-30T00:42:02.355Z,4.30
2019-05-30T00:47:04.820Z,4.27
2019-05-30T00:52:07.279Z,4.67
2019-05-30T00:57:12.386Z,4.70
2019-05-30T01:02:14.850Z,4.43
2019-05-30T01:07:17.298Z,4.77
2019-05-30T01:12:19.757Z,4.40
2019-05-30T01:17:22.228Z,4.90
2019-05-30T01:22:24.688Z,4.70
2019-05-30T01:27:27.133Z,4.87
2019-05-30T01:32:29.599Z,5.00
2019-05-30T01:37:32.037Z,5.50
2019-05-30T01:42:34.498Z,4.83
2019-05-30T01:47:37.053Z,5.50
2019-05-30T01:52:39.505Z,5.57
2019-05-30T01:57:41.955Z,5.37
2019-05-30T02:02:44.405Z,5.80
2019-05-30T02:07:46.855Z,6.03
2019-05-30T02:12:49.306Z,6.00
2019-05-30T02:17:51.761Z,6.73
2019-05-30T02:22:54.271Z,6.30
2019-05-30T02:27:56.672Z,6.30
2019-05-30T02:33:00.591Z,7.10
2019-05-30T02:38:03.097Z,7.33
2019-05-30T02:43:05.662Z,7.57
2019-05-30T02:48:07.354Z,7.50
2019-05-30T02:53:10.936Z,7.60
2019-05-30T02:58:12.903Z,8.60
2019-05-30T03:03:14.832Z,8.70
2019-05-30T03:08:16.331Z,9.67
2019-05-30T03:13:18.804Z,9.87
2019-05-30T03:18:21.281Z,10.93
2019-05-30T03:23:23.792Z,11.60
2019-05-30T03:28:26.256Z,11.50
2019-05-30T03:33:39.504Z,12.23
2019-05-30T03:38:31.215Z,12.57
2019-05-30T03:43:33.851Z,13.30
2019-05-30T03:48:36.313Z,13.40
2019-05-30T03:53:38.773Z,13.13
2019-05-30T03:58:46.914Z,13.27
2019-05-30T04:04:09.326Z,13.00
2019-05-30T04:09:11.826Z,13.60
2019-05-30T04:14:13.298Z,13.13
2019-05-30T04:19:17.127Z,12.53
2019-05-30T04:24:17.573Z,13.03
2019-05-30T04:29:20.018Z,12.37
2019-05-30T04:34:22.491Z,12.97
2019-05-30T04:39:24.972Z,12.50
2019-05-30T04:44:27.437Z,12.53
2019-05-30T04:49:29.903Z,12.57
2019-05-30T04:54:32.373Z,12.63
2019-05-30T04:59:34.829Z,12.67
2019-05-30T05:04:37.303Z,13.30
2019-05-30T05:09:39.777Z,12.40
2019-05-30T05:14:42.253Z,13.03
2019-05-30T05:19:44.711Z,11.80
2019-05-30T05:24:47.179Z,11.87
2019-05-30T05:29:49.639Z,12.63
2019-05-30T05:34:52.277Z,11.13
2019-05-30T05:39:54.571Z,11.27
2019-05-30T05:44:57.037Z,11.20
2019-05-30T05:49:59.506Z,11.30
2019-05-30T05:55:02.042Z,10.33
2019-05-30T06:00:07.468Z,9.50
2019-05-30T06:05:09.923Z,8.30
2019-05-30T06:10:12.408Z,7.70
2019-05-30T06:15:14.879Z,6.93
2019-05-30T06:20:17.498Z,7.70
2019-05-30T06:25:23.765Z,6.30
2019-05-30T06:30:22.439Z,5.80
2019-05-30T06:35:25.064Z,6.90
2019-05-30T06:40:30.388Z,6.20
2019-05-30T06:45:30.399Z,5.27
2019-05-30T06:50:32.253Z,5.30
2019-05-30T06:55:34.700Z,5.83
2019-05-30T07:00:37.183Z,4.80
2019-05-30T07:05:40.191Z,4.50
2019-05-30T07:10:42.111Z,4.90
2019-05-30T07:15:44.598Z,4.90
2019-05-30T07:20:47.062Z,4.20
2019-05-30T07:25:49.531Z,4.70
2019-05-30T07:30:52.006Z,4.00
2019-05-30T07:35:54.452Z,3.67
2019-05-30T07:40:57.035Z,3.50
2019-05-30T07:45:59.499Z,3.67
2019-05-30T07:51:01.970Z,3.40
2019-05-30T07:56:04.461Z,3.23
2019-05-30T08:01:06.989Z,7.93
2019-05-30T08:06:09.501Z,3.20
2019-05-30T08:11:11.966Z,3.37
2019-05-30T08:16:14.426Z,3.07
2019-05-30T08:21:16.894Z,2.50
2019-05-30T08:26:19.356Z,2.90
2019-05-30T08:31:21.813Z,2.93
2019-05-30T08:36:24.271Z,3.93
2019-05-30T08:41:26.729Z,2.97
2019-05-30T08:46:30.243Z,2.40
2019-05-30T08:51:32.183Z,1.92
2019-05-30T08:56:34.533Z,1.50
2019-05-30T09:01:37.707Z,1.65
2019-05-30T09:06:39.943Z,1.62
2019-05-30T09:11:42.317Z,1.52
2019-05-30T09:16:45.909Z,1.40
2019-05-30T09:21:47.476Z,1.67
2019-05-30T09:26:50.482Z,1.75
2019-05-30T09:31:51.534Z,1.60
2019-05-30T09:36:53.997Z,1.60
2019-05-30T09:41:56.456Z,1.50
2019-05-30T09:46:58.909Z,1.55
2019-05-30T09:52:01.387Z,1.67
2019-05-30T09:57:03.845Z,1.30
2019-05-30T10:02:06.420Z,1.55
2019-05-30T10:07:09.106Z,1.40
2019-05-30T10:12:11.569Z,1.23
2019-05-30T10:17:14.028Z,1.30
2019-05-30T10:22:16.513Z,1.17
2019-05-30T10:27:18.973Z,1.35
2019-05-30T10:32:21.444Z,1.20
2019-05-30T10:37:23.915Z,1.60
2019-05-30T10:47:45.812Z,1.30
2019-05-30T10:52:47.195Z,1.80
2019-05-30T10:57:49.944Z,1.23
2019-05-30T11:02:51.309Z,1.40
2019-05-30T11:08:01.886Z,1.30
2019-05-30T11:13:03.413Z,1.70
2019-05-30T11:17:58.482Z,1.70
2019-05-30T11:23:01.570Z,1.30
2019-05-30T11:28:03.965Z,1.30
2019-05-30T11:33:06.569Z,1.50
2019-05-30T11:38:09.025Z,1.87
2019-05-30T11:43:11.501Z,1.80
2019-05-30T11:48:13.961Z,1.70
2019-05-30T11:53:19.345Z,1.80
2019-05-30T11:58:21.828Z,1.90
2019-05-30T12:03:24.310Z,1.40
2019-05-30T12:08:26.950Z,1.67
2019-05-30T12:13:29.614Z,1.60
2019-05-30T12:18:32.057Z,1.67
2019-05-30T12:23:34.606Z,1.53
2019-05-30T12:28:37.317Z,1.53
2019-05-30T12:33:40.058Z,1.70
2019-05-30T12:38:42.662Z,1.50
2019-05-30T12:43:45.062Z,1.60
2019-05-30T12:48:47.526Z,1.60
2019-05-30T12:53:49.998Z,1.50
2019-05-30T12:58:52.457Z,1.80
2019-05-30T13:03:55.053Z,1.90
2019-05-30T13:08:57.459Z,1.40
2019-05-30T13:14:00.668Z,1.53
2019-05-30T13:19:02.403Z,1.40
2019-05-30T13:24:06.053Z,1.33
2019-05-30T13:29:07.342Z,1.40
2019-05-30T13:34:09.800Z,1.50
2019-05-30T13:39:12.282Z,1.10
2019-05-30T13:44:14.777Z,1.30
2019-05-30T13:49:17.258Z,1.60
2019-05-30T13:54:19.727Z,1.40
2019-05-30T13:59:22.194Z,1.27
2019-05-30T14:04:24.637Z,1.50
2019-05-30T14:09:27.129Z,1.33
2019-05-30T14:14:29.612Z,1.50
2019-05-30T14:19:32.069Z,1.60
2019-05-30T14:24:34.564Z,1.63
2019-05-30T14:29:37.022Z,1.30
2019-05-30T14:34:39.508Z,1.50
2019-05-30T14:39:41.975Z,1.27
2019-05-30T14:44:44.449Z,1.20
2019-05-30T14:49:46.918Z,1.27
2019-05-30T14:54:49.396Z,1.20
2019-05-30T14:59:51.870Z,1.37
2019-05-30T15:04:54.325Z,1.20
2019-05-30T15:09:56.818Z,1.17
2019-05-30T15:14:59.276Z,1.23
2019-05-30T15:20:01.819Z,1.10
2019-05-30T15:25:04.239Z,1.50
2019-05-30T15:30:10.568Z,2.10
2019-05-30T15:35:12.842Z,1.50
2019-05-30T15:40:15.187Z,2.20
2019-05-30T15:45:18.143Z,1.30
2019-05-30T15:50:20.106Z,1.53
2019-05-30T15:55:23.354Z,3.27
2019-05-30T16:00:25.052Z,2.27
2019-05-30T16:05:27.531Z,1.23
2019-05-30T16:10:30.006Z,1.37
2019-05-30T16:15:32.478Z,2.90
2019-05-30T16:20:34.981Z,1.90
2019-05-30T16:25:37.438Z,1.40
2019-05-30T16:30:39.918Z,6.93
2019-05-30T16:35:42.413Z,3.20
2019-05-30T16:40:44.876Z,1.20
2019-05-30T16:45:47.331Z,1.10
2019-05-30T16:50:49.812Z,3.37
2019-05-30T16:55:52.283Z,13.97
2019-05-30T17:00:54.743Z,2.73
2019-05-30T17:05:57.528Z,1.37
2019-05-30T17:10:59.664Z,3.80
2019-05-30T17:16:02.221Z,3.00
2019-05-30T17:21:04.641Z,2.00
2019-05-30T17:26:07.094Z,2.00
2019-05-30T17:31:09.569Z,1.63
2019-05-30T17:36:12.030Z,1.60
2019-05-30T17:41:14.518Z,8.87
2019-05-30T17:46:23.289Z,2.50
2019-05-30T17:51:23.756Z,3.20
2019-05-30T17:56:26.140Z,3.17
2019-05-30T18:01:28.433Z,1.60
2019-05-30T18:06:30.814Z,1.40
2019-05-30T18:11:32.560Z,1.83
2019-05-30T18:16:35.020Z,4.30
2019-05-30T18:21:37.471Z,1.60
2019-05-30T18:26:39.922Z,1.50
2019-05-30T18:31:42.389Z,1.83
2019-05-30T18:36:44.900Z,1.50
2019-05-30T18:41:47.347Z,1.50
2019-05-30T18:46:49.814Z,1.40
2019-05-30T18:51:52.290Z,1.50
2019-05-30T18:56:54.885Z,2.10
2019-05-30T19:01:57.551Z,1.73
2019-05-30T19:07:00.053Z,1.50
2019-05-30T19:12:02.518Z,1.70
2019-05-30T19:17:04.996Z,1.60
2019-05-30T19:22:07.465Z,1.63
2019-05-30T19:27:09.951Z,1.77
2019-05-30T19:32:12.392Z,1.90
2019-05-30T19:37:14.906Z,1.47
2019-05-30T19:42:17.461Z,1.93
2019-05-30T19:47:19.942Z,1.80
2019-05-30T19:52:22.416Z,1.80
2019-05-30T19:57:24.904Z,1.80
2019-05-30T20:02:27.375Z,2.17
2019-05-30T20:07:30.450Z,2.53
2019-05-30T20:12:32.684Z,2.40
2019-05-30T20:17:35.472Z,2.37
2019-05-30T20:22:38.221Z,2.20
2019-05-30T20:27:40.905Z,2.20
2019-05-30T20:32:43.274Z,2.10
2019-05-30T20:37:44.740Z,2.40
2019-05-30T20:42:47.211Z,2.50
2019-05-30T20:47:49.738Z,2.60
2019-05-30T20:52:52.244Z,2.60
2019-05-30T20:57:54.762Z,4.30
2019-05-30T21:02:57.237Z,3.83
2019-05-30T21:07:59.722Z,3.90
2019-05-30T21:13:02.203Z,4.03
2019-05-30T21:18:04.665Z,3.67
2019-05-30T21:23:07.158Z,3.67
2019-05-30T21:28:09.662Z,3.00
2019-05-30T21:33:12.227Z,3.23
2019-05-30T21:38:14.623Z,3.87
2019-05-30T21:43:17.100Z,2.97
2019-05-30T21:48:19.574Z,3.27
2019-05-30T21:53:22.057Z,3.20
2019-05-30T21:58:24.515Z,3.13
2019-05-30T22:03:26.988Z,3.30
2019-05-30T22:08:29.457Z,3.40
2019-05-30T22:13:31.919Z,3.70
2019-05-30T22:18:34.398Z,3.30
2019-05-30T22:23:36.865Z,3.70
2019-05-30T22:28:39.366Z,3.37
2019-05-30T22:33:42.653Z,3.20
2019-05-30T22:38:44.835Z,3.50
2019-05-30T22:43:46.754Z,3.73
2019-05-30T22:48:50.438Z,3.97
2019-05-30T22:53:52.832Z,4.20
2019-05-30T22:58:54.191Z,4.20
2019-05-30T23:03:57.615Z,3.50
2019-05-30T23:08:59.116Z,3.63
2019-05-30T23:14:01.572Z,3.57
2019-05-30T23:19:04.034Z,3.87
2019-05-30T23:24:06.476Z,4.17
2019-05-30T23:29:08.945Z,4.20
2019-05-30T23:34:11.417Z,4.03
2019-05-30T23:39:13.893Z,4.20
2019-05-30T23:44:16.349Z,3.70
2019-05-30T23:49:18.818Z,3.63
2019-05-30T23:54:21.326Z,4.03
2019-05-30T23:59:23.783Z,4.13
